logo
Rechercher aéroport 
image banner adimage banner adimage banner ad
image banner ad

ED2203 - Schwaigern

Situé à , Germany

ICAO - , IATA -

Données fournies par Airmate  

Information générale

Coordonnées: N49°6'16" E9°0'41"
Élévation : 1064 feet MSL.
 
Voir autres Aéroports à Baden-Württemberg

Données opérationnelles

Special qualification required
Heure actuelle UTC:
Heure actuelle locale:
Météo à : EDDS - Stuttgart ( 49 km )
METAR: EDDS 251650Z AUTO 10003KT 060V160 CAVOK 24/13 Q1013 NOSIG
TAF: TAF EDDS 251100Z 2512/2612 VRB02KT CAVOK
Voir NOTAMs / SUP AIP / TFR affectant cet aéroport [VIEW]
Fréquences de communication: [VIEW]

Pistes:

Coordonnées de l'aéroport

Adresse: Germany

Vue satellite de ED2203